PWSweather.com
Personal Weather Stations
Station Observations
WXGLH1124
Southern Oaks, Indianapolis, IN 46217

Southern OaksIndianapolis, IN 46217

Lat: 39.65113, Lon: -86.16866

Elevation: 720

Station Type: Vantage Pro2

High Low Average
Temperature 50.4°F10.2°C 28.0°F-2.2°C 38.6°F3.7°C
Dew Point 39.5°F4.2°C 25.6°F-3.6°C 32.1°F0.1°C
Winds 9.0 mph 14.5 kmh Calm Calm 1.0 mph SSE1.6 kmh SSE
Wind Gusts 13.0 mph20.9 kmh -- 2.0 mph3.2 kmh
Humidity 93% 46% 79%
Pressure 30.06 in1017.9 mb 29.68 in1005.1 mb -
Precipitation 0.00 in0.0 mm - -
Hour Temp Dew Point Humidity Winds Wind Gusts Pressure Precip Precip Rate Daily Precip Total
12:00 AM 31.8°F-0.1°C 27.8°F-2.3°C 85% Calm Calm -- 30.07 in1018.3 mb 0.00 in0.0 mm 0.00 in0.0 mm 0.00 in0.0 mm
12:05 AM 31.6°F-0.2°C 27.6°F-2.4°C 85% Calm Calm -- 30.07 in1018.3 mb 0.00 in0.0 mm 0.00 in0.0 mm 0.00 in0.0 mm
12:10 AM 31.5°F-0.3°C 27.8°F-2.3°C 86% Calm Calm -- 30.06 in1017.9 mb 0.00 in0.0 mm 0.00 in0.0 mm 0.00 in0.0 mm
12:15 AM 31.5°F-0.3°C 27.8°F-2.3°C 86% Calm Calm -- 30.07 in1018.3 mb 0.00 in0.0 mm 0.00 in0.0 mm 0.00 in0.0 mm
12:20 AM 31.5°F-0.3°C 27.8°F-2.3°C 86% Calm Calm -- 30.06 in1017.9 mb 0.00 in0.0 mm 0.00 in0.0 mm 0.00 in0.0 mm
12:25 AM 31.4°F-0.3°C 27.7°F-2.4°C 86% Calm Calm -- 30.06 in1017.9 mb 0.00 in0.0 mm 0.00 in0.0 mm 0.00 in0.0 mm
12:30 AM 31.2°F-0.4°C 27.5°F-2.5°C 86% Calm Calm -- 30.06 in1017.9 mb 0.00 in0.0 mm 0.00 in0.0 mm 0.00 in0.0 mm
12:35 AM 31.2°F-0.4°C 27.5°F-2.5°C 86% Calm Calm -- 30.06 in1017.9 mb 0.00 in0.0 mm 0.00 in0.0 mm 0.00 in0.0 mm
12:40 AM 31.4°F-0.3°C 28.0°F-2.2°C 87% Calm Calm -- 30.06 in1017.9 mb 0.00 in0.0 mm 0.00 in0.0 mm 0.00 in0.0 mm
12:45 AM 31.6°F-0.2°C 28.2°F-2.1°C 87% Calm Calm 3.0 mph4.8 kmh 30.06 in1017.9 mb 0.00 in0.0 mm 0.00 in0.0 mm 0.00 in0.0 mm
12:50 AM 31.8°F-0.1°C 28.4°F-2.0°C 87% Calm Calm 3.0 mph4.8 kmh 30.06 in1017.9 mb 0.00 in0.0 mm 0.00 in0.0 mm 0.00 in0.0 mm
12:55 AM 32.0°F0.0°C 28.6°F-1.9°C 87% Calm Calm 3.0 mph4.8 kmh 30.06 in1017.9 mb 0.00 in0.0 mm 0.00 in0.0 mm 0.00 in0.0 mm
01:00 AM 32.1°F0.1°C 28.7°F-1.8°C 87% Calm Calm 1.0 mph1.6 kmh 30.06 in1017.9 mb 0.00 in0.0 mm 0.00 in0.0 mm 0.00 in0.0 mm
01:05 AM 32.1°F0.1°C 28.4°F-2.0°C 86% Calm Calm -- 30.06 in1017.9 mb 0.00 in0.0 mm 0.00 in0.0 mm 0.00 in0.0 mm
01:10 AM 32.1°F0.1°C 28.4°F-2.0°C 86% Calm Calm -- 30.06 in1017.9 mb 0.00 in0.0 mm 0.00 in0.0 mm 0.00 in0.0 mm
01:15 AM 32.0°F0.0°C 28.3°F-2.1°C 86% Calm Calm -- 30.05 in1017.6 mb 0.00 in0.0 mm 0.00 in0.0 mm 0.00 in0.0 mm
01:19 AM 31.8°F-0.1°C 28.1°F-2.2°C 86% Calm Calm -- 30.06 in1017.9 mb 0.00 in0.0 mm 0.00 in0.0 mm 0.00 in0.0 mm
01:25 AM 31.8°F-0.1°C 28.1°F-2.2°C 86% Calm Calm -- 30.05 in1017.6 mb 0.00 in0.0 mm 0.00 in0.0 mm 0.00 in0.0 mm
01:30 AM 31.6°F-0.2°C 27.9°F-2.3°C 86% Calm Calm -- 30.05 in1017.6 mb 0.00 in0.0 mm 0.00 in0.0 mm 0.00 in0.0 mm
01:35 AM 31.4°F-0.3°C 27.7°F-2.4°C 86% Calm Calm -- 30.05 in1017.6 mb 0.00 in0.0 mm 0.00 in0.0 mm 0.00 in0.0 mm
01:40 AM 31.2°F-0.4°C 27.5°F-2.5°C 86% Calm Calm -- 30.04 in1017.3 mb 0.00 in0.0 mm 0.00 in0.0 mm 0.00 in0.0 mm
01:45 AM 31.1°F-0.5°C 27.4°F-2.6°C 86% Calm Calm -- 30.05 in1017.6 mb 0.00 in0.0 mm 0.00 in0.0 mm 0.00 in0.0 mm
01:50 AM 31.1°F-0.5°C 27.7°F-2.4°C 87% Calm Calm -- 30.05 in1017.6 mb 0.00 in0.0 mm 0.00 in0.0 mm 0.00 in0.0 mm
01:55 AM 30.9°F-0.6°C 27.5°F-2.5°C 87% 2.0 mph S3.2 kmh S 2.0 mph3.2 kmh 30.04 in1017.3 mb 0.00 in0.0 mm 0.00 in0.0 mm 0.00 in0.0 mm
01:59 AM 30.7°F-0.7°C 27.3°F-2.6°C 87% Calm Calm -- 30.05 in1017.6 mb 0.00 in0.0 mm 0.00 in0.0 mm 0.00 in0.0 mm
02:04 AM 30.5°F-0.8°C 27.1°F-2.7°C 87% Calm Calm 1.0 mph1.6 kmh 30.04 in1017.3 mb 0.00 in0.0 mm 0.00 in0.0 mm 0.00 in0.0 mm
02:10 AM 30.3°F-0.9°C 26.9°F-2.8°C 87% Calm Calm -- 30.04 in1017.3 mb 0.00 in0.0 mm 0.00 in0.0 mm 0.00 in0.0 mm
02:15 AM 30.2°F-1.0°C 26.8°F-2.9°C 87% Calm Calm -- 30.04 in1017.3 mb 0.00 in0.0 mm 0.00 in0.0 mm 0.00 in0.0 mm
02:20 AM 30.1°F-1.1°C 26.7°F-2.9°C 87% Calm Calm -- 30.04 in1017.3 mb 0.00 in0.0 mm 0.00 in0.0 mm 0.00 in0.0 mm
02:25 AM 30.0°F-1.1°C 26.9°F-2.8°C 88% Calm Calm -- 30.03 in1016.9 mb 0.00 in0.0 mm 0.00 in0.0 mm 0.00 in0.0 mm
02:30 AM 29.9°F-1.2°C 26.8°F-2.9°C 88% Calm Calm -- 30.03 in1016.9 mb 0.00 in0.0 mm 0.00 in0.0 mm 0.00 in0.0 mm
02:35 AM 29.8°F-1.2°C 26.7°F-2.9°C 88% Calm Calm -- 30.03 in1016.9 mb 0.00 in0.0 mm 0.00 in0.0 mm 0.00 in0.0 mm
02:40 AM 29.7°F-1.3°C 26.6°F-3.0°C 88% Calm Calm -- 30.02 in1016.6 mb 0.00 in0.0 mm 0.00 in0.0 mm 0.00 in0.0 mm
02:45 AM 29.7°F-1.3°C 26.6°F-3.0°C 88% Calm Calm 2.0 mph3.2 kmh 30.03 in1016.9 mb 0.00 in0.0 mm 0.00 in0.0 mm 0.00 in0.0 mm
02:50 AM 29.8°F-1.2°C 26.7°F-2.9°C 88% Calm Calm -- 30.03 in1016.9 mb 0.00 in0.0 mm 0.00 in0.0 mm 0.00 in0.0 mm
02:55 AM 29.8°F-1.2°C 26.7°F-2.9°C 88% Calm Calm -- 30.02 in1016.6 mb 0.00 in0.0 mm 0.00 in0.0 mm 0.00 in0.0 mm
03:00 AM 29.7°F-1.3°C 26.6°F-3.0°C 88% Calm Calm -- 30.03 in1016.9 mb 0.00 in0.0 mm 0.00 in0.0 mm 0.00 in0.0 mm
03:05 AM 29.8°F-1.2°C 27.0°F-2.8°C 89% Calm Calm -- 30.02 in1016.6 mb 0.00 in0.0 mm 0.00 in0.0 mm 0.00 in0.0 mm
03:10 AM 29.7°F-1.3°C 26.9°F-2.8°C 89% Calm Calm -- 30.02 in1016.6 mb 0.00 in0.0 mm 0.00 in0.0 mm 0.00 in0.0 mm
03:15 AM 29.7°F-1.3°C 26.9°F-2.8°C 89% Calm Calm -- 30.03 in1016.9 mb 0.00 in0.0 mm 0.00 in0.0 mm 0.00 in0.0 mm
03:20 AM 29.9°F-1.2°C 27.1°F-2.7°C 89% Calm Calm -- 30.02 in1016.6 mb 0.00 in0.0 mm 0.00 in0.0 mm 0.00 in0.0 mm
03:25 AM 29.8°F-1.2°C 27.0°F-2.8°C 89% Calm Calm -- 30.02 in1016.6 mb 0.00 in0.0 mm 0.00 in0.0 mm 0.00 in0.0 mm
03:30 AM 29.8°F-1.2°C 27.0°F-2.8°C 89% Calm Calm -- 30.03 in1016.9 mb 0.00 in0.0 mm 0.00 in0.0 mm 0.00 in0.0 mm
03:35 AM 29.8°F-1.2°C 27.0°F-2.8°C 89% Calm Calm -- 30.03 in1016.9 mb 0.00 in0.0 mm 0.00 in0.0 mm 0.00 in0.0 mm
03:40 AM 29.8°F-1.2°C 27.0°F-2.8°C 89% Calm Calm -- 30.03 in1016.9 mb 0.00 in0.0 mm 0.00 in0.0 mm 0.00 in0.0 mm
03:45 AM 29.9°F-1.2°C 27.1°F-2.7°C 89% Calm Calm -- 30.02 in1016.6 mb 0.00 in0.0 mm 0.00 in0.0 mm 0.00 in0.0 mm
03:50 AM 29.9°F-1.2°C 27.1°F-2.7°C 89% Calm Calm -- 30.03 in1016.9 mb 0.00 in0.0 mm 0.00 in0.0 mm 0.00 in0.0 mm
03:55 AM 29.8°F-1.2°C 27.0°F-2.8°C 89% Calm Calm -- 30.02 in1016.6 mb 0.00 in0.0 mm 0.00 in0.0 mm 0.00 in0.0 mm
04:00 AM 29.7°F-1.3°C 26.9°F-2.8°C 89% Calm Calm -- 30.02 in1016.6 mb 0.00 in0.0 mm 0.00 in0.0 mm 0.00 in0.0 mm
04:05 AM 29.7°F-1.3°C 26.9°F-2.8°C 89% Calm Calm -- 30.02 in1016.6 mb 0.00 in0.0 mm 0.00 in0.0 mm 0.00 in0.0 mm
04:10 AM 29.7°F-1.3°C 27.1°F-2.7°C 90% Calm Calm -- 30.02 in1016.6 mb 0.00 in0.0 mm 0.00 in0.0 mm 0.00 in0.0 mm
04:15 AM 29.7°F-1.3°C 27.1°F-2.7°C 90% Calm Calm -- 30.02 in1016.6 mb 0.00 in0.0 mm 0.00 in0.0 mm 0.00 in0.0 mm
04:20 AM 29.7°F-1.3°C 27.1°F-2.7°C 90% Calm Calm -- 30.01 in1016.3 mb 0.00 in0.0 mm 0.00 in0.0 mm 0.00 in0.0 mm
04:25 AM 29.6°F-1.3°C 26.8°F-2.9°C 89% Calm Calm -- 30.01 in1016.3 mb 0.00 in0.0 mm 0.00 in0.0 mm 0.00 in0.0 mm
04:29 AM 29.6°F-1.3°C 27.0°F-2.8°C 90% Calm Calm -- 30.00 in1015.9 mb 0.00 in0.0 mm 0.00 in0.0 mm 0.00 in0.0 mm
04:35 AM 29.5°F-1.4°C 26.9°F-2.8°C 90% Calm Calm -- 30.00 in1015.9 mb 0.00 in0.0 mm 0.00 in0.0 mm 0.00 in0.0 mm
04:40 AM 29.6°F-1.3°C 27.0°F-2.8°C 90% Calm Calm -- 30.00 in1015.9 mb 0.00 in0.0 mm 0.00 in0.0 mm 0.00 in0.0 mm
04:45 AM 29.5°F-1.4°C 26.9°F-2.8°C 90% Calm Calm -- 30.00 in1015.9 mb 0.00 in0.0 mm 0.00 in0.0 mm 0.00 in0.0 mm
04:49 AM 29.5°F-1.4°C 26.9°F-2.8°C 90% Calm Calm -- 30.00 in1015.9 mb 0.00 in0.0 mm 0.00 in0.0 mm 0.00 in0.0 mm
04:55 AM 29.4°F-1.4°C 26.8°F-2.9°C 90% Calm Calm -- 29.99 in1015.6 mb 0.00 in0.0 mm 0.00 in0.0 mm 0.00 in0.0 mm
05:00 AM 29.4°F-1.4°C 26.8°F-2.9°C 90% Calm Calm -- 29.99 in1015.6 mb 0.00 in0.0 mm 0.00 in0.0 mm 0.00 in0.0 mm
05:05 AM 29.4°F-1.4°C 26.8°F-2.9°C 90% Calm Calm -- 29.99 in1015.6 mb 0.00 in0.0 mm 0.00 in0.0 mm 0.00 in0.0 mm
05:10 AM 29.2°F-1.6°C 26.6°F-3.0°C 90% Calm Calm -- 29.99 in1015.6 mb 0.00 in0.0 mm 0.00 in0.0 mm 0.00 in0.0 mm
05:14 AM 29.2°F-1.6°C 26.6°F-3.0°C 90% Calm Calm -- 29.98 in1015.2 mb 0.00 in0.0 mm 0.00 in0.0 mm 0.00 in0.0 mm
05:20 AM 29.2°F-1.6°C 26.6°F-3.0°C 90% Calm Calm -- 29.98 in1015.2 mb 0.00 in0.0 mm 0.00 in0.0 mm 0.00 in0.0 mm
05:25 AM 29.1°F-1.6°C 26.5°F-3.1°C 90% Calm Calm -- 29.98 in1015.2 mb 0.00 in0.0 mm 0.00 in0.0 mm 0.00 in0.0 mm
05:30 AM 29.0°F-1.7°C 26.4°F-3.1°C 90% Calm Calm -- 29.98 in1015.2 mb 0.00 in0.0 mm 0.00 in0.0 mm 0.00 in0.0 mm
05:35 AM 28.9°F-1.7°C 26.3°F-3.2°C 90% Calm Calm -- 29.97 in1014.9 mb 0.00 in0.0 mm 0.00 in0.0 mm 0.00 in0.0 mm
05:40 AM 28.9°F-1.7°C 26.3°F-3.2°C 90% Calm Calm -- 29.97 in1014.9 mb 0.00 in0.0 mm 0.00 in0.0 mm 0.00 in0.0 mm
05:45 AM 28.8°F-1.8°C 26.2°F-3.2°C 90% Calm Calm -- 29.97 in1014.9 mb 0.00 in0.0 mm 0.00 in0.0 mm 0.00 in0.0 mm
05:50 AM 28.7°F-1.8°C 26.1°F-3.3°C 90% Calm Calm -- 29.97 in1014.9 mb 0.00 in0.0 mm 0.00 in0.0 mm 0.00 in0.0 mm
05:55 AM 28.6°F-1.9°C 26.1°F-3.3°C 90% Calm Calm -- 29.97 in1014.9 mb 0.00 in0.0 mm 0.00 in0.0 mm 0.00 in0.0 mm
06:00 AM 28.5°F-1.9°C 26.0°F-3.3°C 90% Calm Calm -- 29.97 in1014.9 mb 0.00 in0.0 mm 0.00 in0.0 mm 0.00 in0.0 mm
06:05 AM 28.4°F-2.0°C 25.9°F-3.4°C 90% Calm Calm -- 29.97 in1014.9 mb 0.00 in0.0 mm 0.00 in0.0 mm 0.00 in0.0 mm
06:10 AM 28.3°F-2.1°C 25.8°F-3.4°C 90% Calm Calm -- 29.97 in1014.9 mb 0.00 in0.0 mm 0.00 in0.0 mm 0.00 in0.0 mm
06:14 AM 28.1°F-2.2°C 25.6°F-3.6°C 90% Calm Calm -- 29.96 in1014.6 mb 0.00 in0.0 mm 0.00 in0.0 mm 0.00 in0.0 mm
06:20 AM 28.1°F-2.2°C 25.6°F-3.6°C 90% Calm Calm -- 29.96 in1014.6 mb 0.00 in0.0 mm 0.00 in0.0 mm 0.00 in0.0 mm
06:25 AM 28.0°F-2.2°C 25.7°F-3.5°C 91% Calm Calm -- 29.96 in1014.6 mb 0.00 in0.0 mm 0.00 in0.0 mm 0.00 in0.0 mm
06:30 AM 28.2°F-2.1°C 25.9°F-3.4°C 91% Calm Calm -- 29.96 in1014.6 mb 0.00 in0.0 mm 0.00 in0.0 mm 0.00 in0.0 mm
06:34 AM 28.7°F-1.8°C 26.4°F-3.1°C 91% Calm Calm 1.0 mph1.6 kmh 29.95 in1014.2 mb 0.00 in0.0 mm 0.00 in0.0 mm 0.00 in0.0 mm
06:40 AM 29.0°F-1.7°C 26.7°F-2.9°C 91% Calm Calm -- 29.96 in1014.6 mb 0.00 in0.0 mm 0.00 in0.0 mm 0.00 in0.0 mm
06:45 AM 29.2°F-1.6°C 26.9°F-2.8°C 91% Calm Calm -- 29.96 in1014.6 mb 0.00 in0.0 mm 0.00 in0.0 mm 0.00 in0.0 mm
06:50 AM 29.3°F-1.5°C 27.0°F-2.8°C 91% Calm Calm -- 29.96 in1014.6 mb 0.00 in0.0 mm 0.00 in0.0 mm 0.00 in0.0 mm
06:55 AM 29.4°F-1.4°C 27.1°F-2.7°C 91% Calm Calm -- 29.96 in1014.6 mb 0.00 in0.0 mm 0.00 in0.0 mm 0.00 in0.0 mm
07:00 AM 29.4°F-1.4°C 27.1°F-2.7°C 91% Calm Calm -- 29.96 in1014.6 mb 0.00 in0.0 mm 0.00 in0.0 mm 0.00 in0.0 mm
07:05 AM 29.5°F-1.4°C 27.2°F-2.7°C 91% Calm Calm -- 29.96 in1014.6 mb 0.00 in0.0 mm 0.00 in0.0 mm 0.00 in0.0 mm
07:10 AM 29.6°F-1.3°C 27.3°F-2.6°C 91% Calm Calm -- 29.95 in1014.2 mb 0.00 in0.0 mm 0.00 in0.0 mm 0.00 in0.0 mm
07:14 AM 29.7°F-1.3°C 27.4°F-2.6°C 91% Calm Calm -- 29.95 in1014.2 mb 0.00 in0.0 mm 0.00 in0.0 mm 0.00 in0.0 mm
07:20 AM 29.7°F-1.3°C 27.7°F-2.4°C 92% Calm Calm -- 29.95 in1014.2 mb 0.00 in0.0 mm 0.00 in0.0 mm 0.00 in0.0 mm
07:24 AM 29.8°F-1.2°C 27.5°F-2.5°C 91% Calm Calm -- 29.94 in1013.9 mb 0.00 in0.0 mm 0.00 in0.0 mm 0.00 in0.0 mm
07:30 AM 29.8°F-1.2°C 27.5°F-2.5°C 91% Calm Calm -- 29.94 in1013.9 mb 0.00 in0.0 mm 0.00 in0.0 mm 0.00 in0.0 mm
07:34 AM 30.0°F-1.1°C 28.0°F-2.2°C 92% Calm Calm 2.0 mph3.2 kmh 29.94 in1013.9 mb 0.00 in0.0 mm 0.00 in0.0 mm 0.00 in0.0 mm
07:40 AM 30.2°F-1.0°C 28.2°F-2.1°C 92% Calm Calm -- 29.94 in1013.9 mb 0.00 in0.0 mm 0.00 in0.0 mm 0.00 in0.0 mm
07:44 AM 30.2°F-1.0°C 28.2°F-2.1°C 92% Calm Calm 1.0 mph1.6 kmh 29.93 in1013.5 mb 0.00 in0.0 mm 0.00 in0.0 mm 0.00 in0.0 mm
07:50 AM 30.4°F-0.9°C 28.4°F-2.0°C 92% Calm Calm -- 29.93 in1013.5 mb 0.00 in0.0 mm 0.00 in0.0 mm 0.00 in0.0 mm
07:55 AM 30.6°F-0.8°C 28.6°F-1.9°C 92% Calm Calm 1.0 mph1.6 kmh 29.92 in1013.2 mb 0.00 in0.0 mm 0.00 in0.0 mm 0.00 in0.0 mm
08:00 AM 30.7°F-0.7°C 28.7°F-1.8°C 92% Calm Calm -- 29.92 in1013.2 mb 0.00 in0.0 mm 0.00 in0.0 mm 0.00 in0.0 mm
08:05 AM 30.7°F-0.7°C 28.7°F-1.8°C 92% Calm Calm -- 29.92 in1013.2 mb 0.00 in0.0 mm 0.00 in0.0 mm 0.00 in0.0 mm
08:10 AM 30.3°F-0.9°C 28.0°F-2.2°C 91% Calm Calm -- 29.93 in1013.5 mb 0.00 in0.0 mm 0.00 in0.0 mm 0.00 in0.0 mm
08:15 AM 30.1°F-1.1°C 27.8°F-2.3°C 91% Calm Calm -- 29.93 in1013.5 mb 0.00 in0.0 mm 0.00 in0.0 mm 0.00 in0.0 mm
08:20 AM 29.8°F-1.2°C 27.5°F-2.5°C 91% Calm Calm -- 29.92 in1013.2 mb 0.00 in0.0 mm 0.00 in0.0 mm 0.00 in0.0 mm
08:25 AM 29.7°F-1.3°C 27.4°F-2.6°C 91% Calm Calm 1.0 mph1.6 kmh 29.91 in1012.9 mb 0.00 in0.0 mm 0.00 in0.0 mm 0.00 in0.0 mm
08:30 AM 29.7°F-1.3°C 27.7°F-2.4°C 92% Calm Calm -- 29.91 in1012.9 mb 0.00 in0.0 mm 0.00 in0.0 mm 0.00 in0.0 mm
08:34 AM 29.8°F-1.2°C 27.8°F-2.3°C 92% Calm Calm -- 29.92 in1013.2 mb 0.00 in0.0 mm 0.00 in0.0 mm 0.00 in0.0 mm
08:40 AM 29.6°F-1.3°C 27.6°F-2.4°C 92% Calm Calm -- 29.91 in1012.9 mb 0.00 in0.0 mm 0.00 in0.0 mm 0.00 in0.0 mm
08:45 AM 29.6°F-1.3°C 27.6°F-2.4°C 92% Calm Calm -- 29.91 in1012.9 mb 0.00 in0.0 mm 0.00 in0.0 mm 0.00 in0.0 mm
08:50 AM 29.6°F-1.3°C 27.6°F-2.4°C 92% Calm Calm -- 29.91 in1012.9 mb 0.00 in0.0 mm 0.00 in0.0 mm 0.00 in0.0 mm
08:55 AM 29.5°F-1.4°C 27.5°F-2.5°C 92% Calm Calm -- 29.91 in1012.9 mb 0.00 in0.0 mm 0.00 in0.0 mm 0.00 in0.0 mm
09:00 AM 29.4°F-1.4°C 27.1°F-2.7°C 91% Calm Calm -- 29.92 in1013.2 mb 0.00 in0.0 mm 0.00 in0.0 mm 0.00 in0.0 mm
09:04 AM 29.4°F-1.4°C 27.4°F-2.6°C 92% 2.0 mph S3.2 kmh S 2.0 mph3.2 kmh 29.93 in1013.5 mb 0.00 in0.0 mm 0.00 in0.0 mm 0.00 in0.0 mm
09:10 AM 29.4°F-1.4°C 27.4°F-2.6°C 92% Calm Calm 3.0 mph4.8 kmh 29.94 in1013.9 mb 0.00 in0.0 mm 0.00 in0.0 mm 0.00 in0.0 mm
09:15 AM 29.4°F-1.4°C 27.4°F-2.6°C 92% Calm Calm -- 29.93 in1013.5 mb 0.00 in0.0 mm 0.00 in0.0 mm 0.00 in0.0 mm
09:20 AM 29.4°F-1.4°C 27.4°F-2.6°C 92% 1.0 mph S1.6 kmh S 1.0 mph1.6 kmh 29.93 in1013.5 mb 0.00 in0.0 mm 0.00 in0.0 mm 0.00 in0.0 mm
09:24 AM 29.4°F-1.4°C 27.4°F-2.6°C 92% Calm Calm -- 29.93 in1013.5 mb 0.00 in0.0 mm 0.00 in0.0 mm 0.00 in0.0 mm
09:30 AM 29.6°F-1.3°C 27.6°F-2.4°C 92% Calm Calm -- 29.92 in1013.2 mb 0.00 in0.0 mm 0.00 in0.0 mm 0.00 in0.0 mm
09:35 AM 29.6°F-1.3°C 27.6°F-2.4°C 92% Calm Calm -- 29.92 in1013.2 mb 0.00 in0.0 mm 0.00 in0.0 mm 0.00 in0.0 mm
09:40 AM 29.7°F-1.3°C 27.7°F-2.4°C 92% Calm Calm -- 29.92 in1013.2 mb 0.00 in0.0 mm 0.00 in0.0 mm 0.00 in0.0 mm
09:44 AM 29.7°F-1.3°C 27.7°F-2.4°C 92% Calm Calm -- 29.92 in1013.2 mb 0.00 in0.0 mm 0.00 in0.0 mm 0.00 in0.0 mm
09:50 AM 29.8°F-1.2°C 27.8°F-2.3°C 92% Calm Calm -- 29.91 in1012.9 mb 0.00 in0.0 mm 0.00 in0.0 mm 0.00 in0.0 mm
09:55 AM 30.0°F-1.1°C 28.0°F-2.2°C 92% Calm Calm -- 29.91 in1012.9 mb 0.00 in0.0 mm 0.00 in0.0 mm 0.00 in0.0 mm
10:00 AM 30.2°F-1.0°C 28.2°F-2.1°C 92% Calm Calm -- 29.91 in1012.9 mb 0.00 in0.0 mm 0.00 in0.0 mm 0.00 in0.0 mm
10:05 AM 30.5°F-0.8°C 28.5°F-1.9°C 92% Calm Calm -- 29.92 in1013.2 mb 0.00 in0.0 mm 0.00 in0.0 mm 0.00 in0.0 mm
10:10 AM 30.8°F-0.7°C 28.8°F-1.8°C 92% Calm Calm -- 29.92 in1013.2 mb 0.00 in0.0 mm 0.00 in0.0 mm 0.00 in0.0 mm
10:15 AM 31.1°F-0.5°C 29.1°F-1.6°C 92% Calm Calm -- 29.92 in1013.2 mb 0.00 in0.0 mm 0.00 in0.0 mm 0.00 in0.0 mm
10:19 AM 31.5°F-0.3°C 29.5°F-1.4°C 92% Calm Calm -- 29.92 in1013.2 mb 0.00 in0.0 mm 0.00 in0.0 mm 0.00 in0.0 mm
10:25 AM 31.9°F-0.1°C 29.8°F-1.2°C 92% Calm Calm -- 29.92 in1013.2 mb 0.00 in0.0 mm 0.00 in0.0 mm 0.00 in0.0 mm
10:30 AM 32.3°F0.2°C 30.2°F-1.0°C 92% Calm Calm -- 29.92 in1013.2 mb 0.00 in0.0 mm 0.00 in0.0 mm 0.00 in0.0 mm
10:35 AM 32.7°F0.4°C 30.9°F-0.6°C 93% Calm Calm -- 29.92 in1013.2 mb 0.00 in0.0 mm 0.00 in0.0 mm 0.00 in0.0 mm
10:40 AM 33.1°F0.6°C 31.3°F-0.4°C 93% Calm Calm -- 29.92 in1013.2 mb 0.00 in0.0 mm 0.00 in0.0 mm 0.00 in0.0 mm
10:45 AM 33.4°F0.8°C 31.3°F-0.4°C 92% Calm Calm -- 29.92 in1013.2 mb 0.00 in0.0 mm 0.00 in0.0 mm 0.00 in0.0 mm
10:50 AM 33.7°F0.9°C 31.9°F-0.1°C 93% Calm Calm -- 29.92 in1013.2 mb 0.00 in0.0 mm 0.00 in0.0 mm 0.00 in0.0 mm
10:55 AM 34.0°F1.1°C 31.9°F-0.1°C 92% Calm Calm -- 29.92 in1013.2 mb 0.00 in0.0 mm 0.00 in0.0 mm 0.00 in0.0 mm
11:00 AM 34.2°F1.2°C 32.4°F0.2°C 93% Calm Calm -- 29.91 in1012.9 mb 0.00 in0.0 mm 0.00 in0.0 mm 0.00 in0.0 mm
11:05 AM 34.4°F1.3°C 32.3°F0.2°C 92% 2.0 mph S3.2 kmh S 3.0 mph4.8 kmh 29.90 in1012.5 mb 0.00 in0.0 mm 0.00 in0.0 mm 0.00 in0.0 mm
11:10 AM 34.6°F1.4°C 32.5°F0.3°C 92% Calm Calm 3.0 mph4.8 kmh 29.90 in1012.5 mb 0.00 in0.0 mm 0.00 in0.0 mm 0.00 in0.0 mm
11:15 AM 34.9°F1.6°C 32.8°F0.4°C 92% Calm Calm 1.0 mph1.6 kmh 29.90 in1012.5 mb 0.00 in0.0 mm 0.00 in0.0 mm 0.00 in0.0 mm
11:20 AM 35.2°F1.8°C 33.1°F0.6°C 92% Calm Calm 2.0 mph3.2 kmh 29.90 in1012.5 mb 0.00 in0.0 mm 0.00 in0.0 mm 0.00 in0.0 mm
11:25 AM 35.5°F1.9°C 33.4°F0.8°C 92% Calm Calm 2.0 mph3.2 kmh 29.90 in1012.5 mb 0.00 in0.0 mm 0.00 in0.0 mm 0.00 in0.0 mm
11:30 AM 35.9°F2.2°C 33.8°F1.0°C 92% Calm Calm -- 29.90 in1012.5 mb 0.00 in0.0 mm 0.00 in0.0 mm 0.00 in0.0 mm
11:35 AM 36.4°F2.4°C 34.3°F1.3°C 92% 2.0 mph E3.2 kmh E 2.0 mph3.2 kmh 29.89 in1012.2 mb 0.00 in0.0 mm 0.00 in0.0 mm 0.00 in0.0 mm
11:40 AM 37.0°F2.8°C 34.9°F1.6°C 92% Calm Calm -- 29.90 in1012.5 mb 0.00 in0.0 mm 0.00 in0.0 mm 0.00 in0.0 mm
11:45 AM 37.5°F3.1°C 35.1°F1.7°C 91% Calm Calm 3.0 mph4.8 kmh 29.89 in1012.2 mb 0.00 in0.0 mm 0.00 in0.0 mm 0.00 in0.0 mm
11:50 AM 38.1°F3.4°C 35.4°F1.9°C 90% Calm Calm 2.0 mph3.2 kmh 29.89 in1012.2 mb 0.00 in0.0 mm 0.00 in0.0 mm 0.00 in0.0 mm
11:55 AM 39.1°F3.9°C 36.1°F2.3°C 89% Calm Calm 1.0 mph1.6 kmh 29.88 in1011.9 mb 0.00 in0.0 mm 0.00 in0.0 mm 0.00 in0.0 mm
11:59 AM 40.0°F4.4°C 36.2°F2.3°C 86% 1.0 mph E1.6 kmh E 3.0 mph4.8 kmh 29.88 in1011.9 mb 0.00 in0.0 mm 0.00 in0.0 mm 0.00 in0.0 mm
12:05 PM 40.8°F4.9°C 35.1°F1.7°C 80% 2.0 mph E3.2 kmh E 5.0 mph8.0 kmh 29.88 in1011.9 mb 0.00 in0.0 mm 0.00 in0.0 mm 0.00 in0.0 mm
12:10 PM 41.6°F5.3°C 33.9°F1.1°C 74% 1.0 mph ENE1.6 kmh ENE 6.0 mph9.7 kmh 29.87 in1011.5 mb 0.00 in0.0 mm 0.00 in0.0 mm 0.00 in0.0 mm
12:15 PM 42.8°F6.0°C 35.1°F1.7°C 74% Calm Calm 3.0 mph4.8 kmh 29.87 in1011.5 mb 0.00 in0.0 mm 0.00 in0.0 mm 0.00 in0.0 mm
12:20 PM 44.0°F6.7°C 34.9°F1.6°C 70% Calm Calm 2.0 mph3.2 kmh 29.86 in1011.2 mb 0.00 in0.0 mm 0.00 in0.0 mm 0.00 in0.0 mm
12:25 PM 44.7°F7.1°C 33.7°F0.9°C 65% 2.0 mph E3.2 kmh E 4.0 mph6.4 kmh 29.86 in1011.2 mb 0.00 in0.0 mm 0.00 in0.0 mm 0.00 in0.0 mm
12:30 PM 45.4°F7.4°C 34.0°F1.1°C 64% Calm Calm 2.0 mph3.2 kmh 29.85 in1010.8 mb 0.00 in0.0 mm 0.00 in0.0 mm 0.00 in0.0 mm
12:35 PM 45.9°F7.7°C 32.8°F0.4°C 60% 1.0 mph E1.6 kmh E 7.0 mph11.3 kmh 29.85 in1010.8 mb 0.00 in0.0 mm 0.00 in0.0 mm 0.00 in0.0 mm
12:40 PM 46.1°F7.8°C 33.4°F0.8°C 61% Calm Calm 4.0 mph6.4 kmh 29.84 in1010.5 mb 0.00 in0.0 mm 0.00 in0.0 mm 0.00 in0.0 mm
12:44 PM 46.5°F8.1°C 32.5°F0.3°C 58% Calm Calm 5.0 mph8.0 kmh 29.84 in1010.5 mb 0.00 in0.0 mm 0.00 in0.0 mm 0.00 in0.0 mm
12:50 PM 47.0°F8.3°C 33.4°F0.8°C 59% 1.0 mph E1.6 kmh E 5.0 mph8.0 kmh 29.84 in1010.5 mb 0.00 in0.0 mm 0.00 in0.0 mm 0.00 in0.0 mm
12:55 PM 47.5°F8.6°C 33.0°F0.6°C 57% 2.0 mph E3.2 kmh E 7.0 mph11.3 kmh 29.83 in1010.2 mb 0.00 in0.0 mm 0.00 in0.0 mm 0.00 in0.0 mm
12:59 PM 47.5°F8.6°C 33.0°F0.6°C 57% 2.0 mph E3.2 kmh E 4.0 mph6.4 kmh 29.83 in1010.2 mb 0.00 in0.0 mm 0.00 in0.0 mm 0.00 in0.0 mm
01:04 PM 47.8°F8.8°C 33.8°F1.0°C 58% 2.0 mph ESE3.2 kmh ESE 3.0 mph4.8 kmh 29.82 in1009.8 mb 0.00 in0.0 mm 0.00 in0.0 mm 0.00 in0.0 mm
01:10 PM 48.4°F9.1°C 33.9°F1.1°C 57% Calm Calm 5.0 mph8.0 kmh 29.82 in1009.8 mb 0.00 in0.0 mm 0.00 in0.0 mm 0.00 in0.0 mm
01:15 PM 48.3°F9.1°C 33.4°F0.8°C 56% Calm Calm 6.0 mph9.7 kmh 29.81 in1009.5 mb 0.00 in0.0 mm 0.00 in0.0 mm 0.00 in0.0 mm
01:20 PM 48.2°F9.0°C 33.3°F0.7°C 56% 4.0 mph ENE6.4 kmh ENE 9.0 mph14.5 kmh 29.81 in1009.5 mb 0.00 in0.0 mm 0.00 in0.0 mm 0.00 in0.0 mm
01:24 PM 48.2°F9.0°C 33.3°F0.7°C 56% 1.0 mph NE1.6 kmh NE 7.0 mph11.3 kmh 29.80 in1009.1 mb 0.00 in0.0 mm 0.00 in0.0 mm 0.00 in0.0 mm
01:30 PM 48.1°F8.9°C 32.7°F0.4°C 55% 2.0 mph E3.2 kmh E 9.0 mph14.5 kmh 29.79 in1008.8 mb 0.00 in0.0 mm 0.00 in0.0 mm 0.00 in0.0 mm
01:35 PM 48.1°F8.9°C 33.2°F0.7°C 56% 3.0 mph NE4.8 kmh NE 10.0 mph16.1 kmh 29.79 in1008.8 mb 0.00 in0.0 mm 0.00 in0.0 mm 0.00 in0.0 mm
01:40 PM 48.4°F9.1°C 33.4°F0.8°C 56% 3.0 mph NNE4.8 kmh NNE 5.0 mph8.0 kmh 29.78 in1008.5 mb 0.00 in0.0 mm 0.00 in0.0 mm 0.00 in0.0 mm
01:45 PM 48.5°F9.2°C 33.5°F0.8°C 56% 5.0 mph NE8.0 kmh NE 11.0 mph17.7 kmh 29.77 in1008.1 mb 0.00 in0.0 mm 0.00 in0.0 mm 0.00 in0.0 mm
01:50 PM 48.2°F9.0°C 33.3°F0.7°C 56% 8.0 mph ENE12.9 kmh ENE 10.0 mph16.1 kmh 29.77 in1008.1 mb 0.00 in0.0 mm 0.00 in0.0 mm 0.00 in0.0 mm
01:55 PM 48.3°F9.1°C 33.8°F1.0°C 57% 4.0 mph ENE6.4 kmh ENE 12.0 mph19.3 kmh 29.76 in1007.8 mb 0.00 in0.0 mm 0.00 in0.0 mm 0.00 in0.0 mm
02:00 PM 48.3°F9.1°C 33.8°F1.0°C 57% Calm Calm 10.0 mph16.1 kmh 29.76 in1007.8 mb 0.00 in0.0 mm 0.00 in0.0 mm 0.00 in0.0 mm
02:05 PM 48.7°F9.3°C 34.2°F1.2°C 57% 1.0 mph E1.6 kmh E 7.0 mph11.3 kmh 29.75 in1007.5 mb 0.00 in0.0 mm 0.00 in0.0 mm 0.00 in0.0 mm
02:10 PM 48.9°F9.4°C 34.4°F1.3°C 57% 9.0 mph NNE14.5 kmh NNE 9.0 mph14.5 kmh 29.75 in1007.5 mb 0.00 in0.0 mm 0.00 in0.0 mm 0.00 in0.0 mm
02:15 PM 48.7°F9.3°C 35.0°F1.7°C 59% 7.0 mph N11.3 kmh N 8.0 mph12.9 kmh 29.75 in1007.5 mb 0.00 in0.0 mm 0.00 in0.0 mm 0.00 in0.0 mm
02:19 PM 48.7°F9.3°C 34.6°F1.4°C 58% 8.0 mph ENE12.9 kmh ENE 10.0 mph16.1 kmh 29.75 in1007.5 mb 0.00 in0.0 mm 0.00 in0.0 mm 0.00 in0.0 mm
02:25 PM 48.8°F9.3°C 34.7°F1.5°C 58% 6.0 mph NE9.7 kmh NE 11.0 mph17.7 kmh 29.74 in1007.1 mb 0.00 in0.0 mm 0.00 in0.0 mm 0.00 in0.0 mm
02:29 PM 49.1°F9.5°C 35.4°F1.9°C 59% 4.0 mph NE6.4 kmh NE 7.0 mph11.3 kmh 29.74 in1007.1 mb 0.00 in0.0 mm 0.00 in0.0 mm 0.00 in0.0 mm
02:35 PM 49.1°F9.5°C 34.5°F1.4°C 57% 9.0 mph N14.5 kmh N 13.0 mph20.9 kmh 29.74 in1007.1 mb 0.00 in0.0 mm 0.00 in0.0 mm 0.00 in0.0 mm
02:40 PM 49.0°F9.4°C 34.5°F1.4°C 57% 2.0 mph N3.2 kmh N 8.0 mph12.9 kmh 29.73 in1006.8 mb 0.00 in0.0 mm 0.00 in0.0 mm 0.00 in0.0 mm
02:44 PM 49.1°F9.5°C 34.5°F1.4°C 57% 4.0 mph NNE6.4 kmh NNE 10.0 mph16.1 kmh 29.73 in1006.8 mb 0.00 in0.0 mm 0.00 in0.0 mm 0.00 in0.0 mm
02:50 PM 49.3°F9.6°C 34.3°F1.3°C 56% 4.0 mph NNE6.4 kmh NNE 9.0 mph14.5 kmh 29.73 in1006.8 mb 0.00 in0.0 mm 0.00 in0.0 mm 0.00 in0.0 mm
02:54 PM 49.5°F9.7°C 34.0°F1.1°C 55% 2.0 mph ENE3.2 kmh ENE 12.0 mph19.3 kmh 29.73 in1006.8 mb 0.00 in0.0 mm 0.00 in0.0 mm 0.00 in0.0 mm
02:59 PM 49.8°F9.9°C 33.8°F1.0°C 54% 5.0 mph NNE8.0 kmh NNE 7.0 mph11.3 kmh 29.72 in1006.4 mb 0.00 in0.0 mm 0.00 in0.0 mm 0.00 in0.0 mm
03:05 PM 50.0°F10.0°C 33.6°F0.9°C 53% 5.0 mph NE8.0 kmh NE 10.0 mph16.1 kmh 29.72 in1006.4 mb 0.00 in0.0 mm 0.00 in0.0 mm 0.00 in0.0 mm
03:10 PM 49.9°F9.9°C 33.0°F0.6°C 52% 2.0 mph NE3.2 kmh NE 13.0 mph20.9 kmh 29.72 in1006.4 mb 0.00 in0.0 mm 0.00 in0.0 mm 0.00 in0.0 mm
03:15 PM 50.1°F10.1°C 33.2°F0.7°C 52% 5.0 mph N8.0 kmh N 7.0 mph11.3 kmh 29.71 in1006.1 mb 0.00 in0.0 mm 0.00 in0.0 mm 0.00 in0.0 mm
03:19 PM 50.4°F10.2°C 33.9°F1.1°C 53% 1.0 mph NE1.6 kmh NE 8.0 mph12.9 kmh 29.71 in1006.1 mb 0.00 in0.0 mm 0.00 in0.0 mm 0.00 in0.0 mm
03:25 PM 50.4°F10.2°C 33.5°F0.8°C 52% 4.0 mph NE6.4 kmh NE 11.0 mph17.7 kmh 29.71 in1006.1 mb 0.00 in0.0 mm 0.00 in0.0 mm 0.00 in0.0 mm
03:30 PM 50.2°F10.1°C 33.7°F0.9°C 53% 3.0 mph NE4.8 kmh NE 8.0 mph12.9 kmh 29.70 in1005.8 mb 0.00 in0.0 mm 0.00 in0.0 mm 0.00 in0.0 mm
03:35 PM 50.0°F10.0°C 33.6°F0.9°C 53% 8.0 mph NNE12.9 kmh NNE 10.0 mph16.1 kmh 29.70 in1005.8 mb 0.00 in0.0 mm 0.00 in0.0 mm 0.00 in0.0 mm
03:40 PM 49.8°F9.9°C 32.9°F0.5°C 52% 1.0 mph NE1.6 kmh NE 9.0 mph14.5 kmh 29.70 in1005.8 mb 0.00 in0.0 mm 0.00 in0.0 mm 0.00 in0.0 mm
03:45 PM 49.7°F9.8°C 31.8°F-0.1°C 50% 3.0 mph ENE4.8 kmh ENE 11.0 mph17.7 kmh 29.69 in1005.4 mb 0.00 in0.0 mm 0.00 in0.0 mm 0.00 in0.0 mm
03:50 PM 49.9°F9.9°C 31.5°F-0.3°C 49% 5.0 mph ENE8.0 kmh ENE 9.0 mph14.5 kmh 29.69 in1005.4 mb 0.00 in0.0 mm 0.00 in0.0 mm 0.00 in0.0 mm
03:55 PM 49.9°F9.9°C 31.5°F-0.3°C 49% 2.0 mph NE3.2 kmh NE 6.0 mph9.7 kmh 29.69 in1005.4 mb 0.00 in0.0 mm 0.00 in0.0 mm 0.00 in0.0 mm
04:00 PM 49.9°F9.9°C 31.5°F-0.3°C 49% 2.0 mph ENE3.2 kmh ENE 9.0 mph14.5 kmh 29.68 in1005.1 mb 0.00 in0.0 mm 0.00 in0.0 mm 0.00 in0.0 mm
04:04 PM 50.0°F10.0°C 31.1°F-0.5°C 48% 1.0 mph NE1.6 kmh NE 13.0 mph20.9 kmh 29.68 in1005.1 mb 0.00 in0.0 mm 0.00 in0.0 mm 0.00 in0.0 mm
04:10 PM 50.0°F10.0°C 30.1°F-1.1°C 46% 3.0 mph NNE4.8 kmh NNE 12.0 mph19.3 kmh 29.68 in1005.1 mb 0.00 in0.0 mm 0.00 in0.0 mm 0.00 in0.0 mm
04:15 PM 50.1°F10.1°C 31.2°F-0.4°C 48% 2.0 mph NE3.2 kmh NE 6.0 mph9.7 kmh 29.68 in1005.1 mb 0.00 in0.0 mm 0.00 in0.0 mm 0.00 in0.0 mm
04:19 PM 50.1°F10.1°C 31.2°F-0.4°C 48% 5.0 mph NNE8.0 kmh NNE 5.0 mph8.0 kmh 29.68 in1005.1 mb 0.00 in0.0 mm 0.00 in0.0 mm 0.00 in0.0 mm
04:25 PM 50.1°F10.1°C 31.2°F-0.4°C 48% Calm Calm 8.0 mph12.9 kmh 29.68 in1005.1 mb 0.00 in0.0 mm 0.00 in0.0 mm 0.00 in0.0 mm
04:30 PM 50.1°F10.1°C 31.7°F-0.2°C 49% Calm Calm 6.0 mph9.7 kmh 29.68 in1005.1 mb 0.00 in0.0 mm 0.00 in0.0 mm 0.00 in0.0 mm
04:35 PM 50.1°F10.1°C 31.2°F-0.4°C 48% Calm Calm 10.0 mph16.1 kmh 29.68 in1005.1 mb 0.00 in0.0 mm 0.00 in0.0 mm 0.00 in0.0 mm
04:40 PM 50.0°F10.0°C 31.6°F-0.2°C 49% 3.0 mph NE4.8 kmh NE 4.0 mph6.4 kmh 29.68 in1005.1 mb 0.00 in0.0 mm 0.00 in0.0 mm 0.00 in0.0 mm
04:44 PM 50.0°F10.0°C 32.1°F0.1°C 50% 1.0 mph ENE1.6 kmh ENE 2.0 mph3.2 kmh 29.68 in1005.1 mb 0.00 in0.0 mm 0.00 in0.0 mm 0.00 in0.0 mm
04:50 PM 49.9°F9.9°C 32.0°F0.0°C 50% 1.0 mph ENE1.6 kmh ENE 1.0 mph1.6 kmh 29.69 in1005.4 mb 0.00 in0.0 mm 0.00 in0.0 mm 0.00 in0.0 mm
04:55 PM 49.9°F9.9°C 32.0°F0.0°C 50% Calm Calm 1.0 mph1.6 kmh 29.69 in1005.4 mb 0.00 in0.0 mm 0.00 in0.0 mm 0.00 in0.0 mm
05:00 PM 49.9°F9.9°C 32.0°F0.0°C 50% 4.0 mph NE6.4 kmh NE 4.0 mph6.4 kmh 29.69 in1005.4 mb 0.00 in0.0 mm 0.00 in0.0 mm 0.00 in0.0 mm
05:05 PM 49.9°F9.9°C 32.0°F0.0°C 50% Calm Calm 2.0 mph3.2 kmh 29.69 in1005.4 mb 0.00 in0.0 mm 0.00 in0.0 mm 0.00 in0.0 mm
05:10 PM 50.0°F10.0°C 31.6°F-0.2°C 49% Calm Calm 1.0 mph1.6 kmh 29.69 in1005.4 mb 0.00 in0.0 mm 0.00 in0.0 mm 0.00 in0.0 mm
05:14 PM 50.0°F10.0°C 32.6°F0.3°C 51% Calm Calm 1.0 mph1.6 kmh 29.70 in1005.8 mb 0.00 in0.0 mm 0.00 in0.0 mm 0.00 in0.0 mm
05:20 PM 49.7°F9.8°C 32.8°F0.4°C 52% Calm Calm 3.0 mph4.8 kmh 29.70 in1005.8 mb 0.00 in0.0 mm 0.00 in0.0 mm 0.00 in0.0 mm
05:24 PM 49.7°F9.8°C 32.8°F0.4°C 52% Calm Calm -- 29.69 in1005.4 mb 0.00 in0.0 mm 0.00 in0.0 mm 0.00 in0.0 mm
05:30 PM 49.7°F9.8°C 33.3°F0.7°C 53% Calm Calm -- 29.69 in1005.4 mb 0.00 in0.0 mm 0.00 in0.0 mm 0.00 in0.0 mm
05:35 PM 49.6°F9.8°C 33.2°F0.7°C 53% 2.0 mph S3.2 kmh S 3.0 mph4.8 kmh 29.69 in1005.4 mb 0.00 in0.0 mm 0.00 in0.0 mm 0.00 in0.0 mm
05:40 PM 49.5°F9.7°C 33.1°F0.6°C 53% Calm Calm 3.0 mph4.8 kmh 29.70 in1005.8 mb 0.00 in0.0 mm 0.00 in0.0 mm 0.00 in0.0 mm
05:45 PM 49.3°F9.6°C 33.8°F1.0°C 55% Calm Calm -- 29.70 in1005.8 mb 0.00 in0.0 mm 0.00 in0.0 mm 0.00 in0.0 mm
05:49 PM 49.1°F9.5°C 33.2°F0.7°C 54% Calm Calm 1.0 mph1.6 kmh 29.70 in1005.8 mb 0.00 in0.0 mm 0.00 in0.0 mm 0.00 in0.0 mm
05:55 PM 49.1°F9.5°C 33.2°F0.7°C 54% 1.0 mph S1.6 kmh S 1.0 mph1.6 kmh 29.70 in1005.8 mb 0.00 in0.0 mm 0.00 in0.0 mm 0.00 in0.0 mm
06:00 PM 49.0°F9.4°C 33.1°F0.6°C 54% Calm Calm 1.0 mph1.6 kmh 29.70 in1005.8 mb 0.00 in0.0 mm 0.00 in0.0 mm 0.00 in0.0 mm
06:05 PM 48.9°F9.4°C 33.5°F0.8°C 55% Calm Calm -- 29.70 in1005.8 mb 0.00 in0.0 mm 0.00 in0.0 mm 0.00 in0.0 mm
06:10 PM 48.9°F9.4°C 34.8°F1.6°C 58% Calm Calm -- 29.70 in1005.8 mb 0.00 in0.0 mm 0.00 in0.0 mm 0.00 in0.0 mm
06:15 PM 48.6°F9.2°C 34.9°F1.6°C 59% 1.0 mph S1.6 kmh S 1.0 mph1.6 kmh 29.71 in1006.1 mb 0.00 in0.0 mm 0.00 in0.0 mm 0.00 in0.0 mm
06:20 PM 48.4°F9.1°C 35.6°F2.0°C 61% Calm Calm 1.0 mph1.6 kmh 29.71 in1006.1 mb 0.00 in0.0 mm 0.00 in0.0 mm 0.00 in0.0 mm
06:25 PM 48.3°F9.1°C 36.3°F2.4°C 63% Calm Calm -- 29.71 in1006.1 mb 0.00 in0.0 mm 0.00 in0.0 mm 0.00 in0.0 mm
06:30 PM 48.1°F8.9°C 36.5°F2.5°C 64% Calm Calm -- 29.71 in1006.1 mb 0.00 in0.0 mm 0.00 in0.0 mm 0.00 in0.0 mm
06:34 PM 48.0°F8.9°C 36.0°F2.2°C 63% Calm Calm -- 29.71 in1006.1 mb 0.00 in0.0 mm 0.00 in0.0 mm 0.00 in0.0 mm
06:40 PM 47.7°F8.7°C 36.1°F2.3°C 64% Calm Calm -- 29.71 in1006.1 mb 0.00 in0.0 mm 0.00 in0.0 mm 0.00 in0.0 mm
06:44 PM 47.6°F8.7°C 36.8°F2.7°C 66% Calm Calm -- 29.71 in1006.1 mb 0.00 in0.0 mm 0.00 in0.0 mm 0.00 in0.0 mm
06:50 PM 47.3°F8.5°C 37.3°F2.9°C 68% Calm Calm -- 29.71 in1006.1 mb 0.00 in0.0 mm 0.00 in0.0 mm 0.00 in0.0 mm
06:55 PM 47.1°F8.4°C 37.5°F3.1°C 69% Calm Calm -- 29.70 in1005.8 mb 0.00 in0.0 mm 0.00 in0.0 mm 0.00 in0.0 mm
07:00 PM 47.0°F8.3°C 37.7°F3.2°C 70% Calm Calm -- 29.70 in1005.8 mb 0.00 in0.0 mm 0.00 in0.0 mm 0.00 in0.0 mm
07:05 PM 46.8°F8.2°C 36.8°F2.7°C 68% Calm Calm -- 29.70 in1005.8 mb 0.00 in0.0 mm 0.00 in0.0 mm 0.00 in0.0 mm
07:10 PM 46.6°F8.1°C 37.4°F3.0°C 70% Calm Calm 1.0 mph1.6 kmh 29.70 in1005.8 mb 0.00 in0.0 mm 0.00 in0.0 mm 0.00 in0.0 mm
07:15 PM 46.3°F7.9°C 37.4°F3.0°C 71% Calm Calm 3.0 mph4.8 kmh 29.70 in1005.8 mb 0.00 in0.0 mm 0.00 in0.0 mm 0.00 in0.0 mm
07:19 PM 46.0°F7.8°C 38.2°F3.4°C 74% Calm Calm 1.0 mph1.6 kmh 29.70 in1005.8 mb 0.00 in0.0 mm 0.00 in0.0 mm 0.00 in0.0 mm
07:25 PM 45.7°F7.6°C 38.2°F3.4°C 75% Calm Calm 1.0 mph1.6 kmh 29.70 in1005.8 mb 0.01 in0.3 mm 0.10 in2.5 mm 0.01 in0.3 mm
07:30 PM 45.4°F7.4°C 38.6°F3.7°C 77% Calm Calm -- 29.71 in1006.1 mb 0.01 in0.3 mm 0.00 in0.0 mm 0.01 in0.3 mm
07:35 PM 45.1°F7.3°C 38.7°F3.7°C 78% Calm Calm -- 29.71 in1006.1 mb 0.01 in0.3 mm 0.00 in0.0 mm 0.01 in0.3 mm
07:40 PM 44.7°F7.1°C 38.9°F3.8°C 80% Calm Calm -- 29.71 in1006.1 mb 0.01 in0.3 mm 0.00 in0.0 mm 0.01 in0.3 mm
07:45 PM 44.4°F6.9°C 38.9°F3.8°C 81% Calm Calm -- 29.71 in1006.1 mb 0.01 in0.3 mm 0.00 in0.0 mm 0.01 in0.3 mm
07:50 PM 44.1°F6.7°C 39.0°F3.9°C 82% Calm Calm -- 29.71 in1006.1 mb 0.01 in0.3 mm 0.00 in0.0 mm 0.01 in0.3 mm
07:54 PM 43.9°F6.6°C 39.1°F3.9°C 83% Calm Calm -- 29.72 in1006.4 mb 0.02 in0.5 mm 0.15 in3.8 mm 0.02 in0.5 mm
08:00 PM 43.7°F6.5°C 39.2°F4.0°C 84% Calm Calm -- 29.72 in1006.4 mb 0.02 in0.5 mm 0.00 in0.0 mm 0.02 in0.5 mm
08:05 PM 43.6°F6.4°C 39.4°F4.1°C 85% Calm Calm -- 29.72 in1006.4 mb 0.02 in0.5 mm 0.00 in0.0 mm 0.02 in0.5 mm
08:10 PM 43.4°F6.3°C 39.2°F4.0°C 85% Calm Calm -- 29.72 in1006.4 mb 0.02 in0.5 mm 0.00 in0.0 mm 0.02 in0.5 mm
08:14 PM 43.2°F6.2°C 39.3°F4.1°C 86% Calm Calm -- 29.72 in1006.4 mb 0.02 in0.5 mm 0.00 in0.0 mm 0.02 in0.5 mm
08:20 PM 43.1°F6.2°C 39.2°F4.0°C 86% Calm Calm 3.0 mph4.8 kmh 29.72 in1006.4 mb 0.02 in0.5 mm 0.00 in0.0 mm 0.02 in0.5 mm
08:25 PM 42.9°F6.1°C 39.3°F4.1°C 87% 4.0 mph S6.4 kmh S 4.0 mph6.4 kmh 29.72 in1006.4 mb 0.01 in0.3 mm 0.00 in0.0 mm 0.02 in0.5 mm
08:30 PM 42.7°F5.9°C 39.1°F3.9°C 87% Calm Calm 1.0 mph1.6 kmh 29.72 in1006.4 mb 0.01 in0.3 mm 0.00 in0.0 mm 0.02 in0.5 mm
08:35 PM 42.7°F5.9°C 39.1°F3.9°C 87% Calm Calm -- 29.72 in1006.4 mb 0.01 in0.3 mm 0.00 in0.0 mm 0.02 in0.5 mm
08:40 PM 42.6°F5.9°C 39.0°F3.9°C 87% Calm Calm -- 29.72 in1006.4 mb 0.01 in0.3 mm 0.00 in0.0 mm 0.02 in0.5 mm
08:44 PM 42.6°F5.9°C 39.0°F3.9°C 87% Calm Calm -- 29.72 in1006.4 mb 0.01 in0.3 mm 0.00 in0.0 mm 0.02 in0.5 mm
08:50 PM 42.6°F5.9°C 39.0°F3.9°C 87% Calm Calm -- 29.72 in1006.4 mb 0.01 in0.3 mm 0.00 in0.0 mm 0.02 in0.5 mm
08:55 PM 42.5°F5.8°C 39.2°F4.0°C 88% Calm Calm -- 29.72 in1006.4 mb 0.00 in0.0 mm 0.00 in0.0 mm 0.02 in0.5 mm
08:59 PM 42.7°F5.9°C 39.4°F4.1°C 88% Calm Calm -- 29.72 in1006.4 mb 0.00 in0.0 mm 0.00 in0.0 mm 0.02 in0.5 mm
09:05 PM 42.6°F5.9°C 39.3°F4.1°C 88% Calm Calm -- 29.73 in1006.8 mb 0.00 in0.0 mm 0.00 in0.0 mm 0.02 in0.5 mm
09:10 PM 42.5°F5.8°C 39.5°F4.2°C 89% Calm Calm -- 29.73 in1006.8 mb 0.00 in0.0 mm 0.00 in0.0 mm 0.02 in0.5 mm
09:14 PM 42.4°F5.8°C 39.1°F3.9°C 88% Calm Calm -- 29.73 in1006.8 mb 0.00 in0.0 mm 0.00 in0.0 mm 0.02 in0.5 mm
09:20 PM 42.3°F5.7°C 39.3°F4.1°C 89% Calm Calm -- 29.73 in1006.8 mb 0.00 in0.0 mm 0.00 in0.0 mm 0.02 in0.5 mm
09:24 PM 42.3°F5.7°C 39.3°F4.1°C 89% Calm Calm -- 29.73 in1006.8 mb 0.00 in0.0 mm 0.00 in0.0 mm 0.02 in0.5 mm
09:30 PM 42.2°F5.7°C 39.2°F4.0°C 89% Calm Calm -- 29.73 in1006.8 mb 0.00 in0.0 mm 0.00 in0.0 mm 0.02 in0.5 mm
09:35 PM 42.2°F5.7°C 39.2°F4.0°C 89% 3.0 mph SW4.8 kmh SW 3.0 mph4.8 kmh 29.73 in1006.8 mb 0.00 in0.0 mm 0.00 in0.0 mm 0.02 in0.5 mm
09:39 PM 42.1°F5.6°C 39.1°F3.9°C 89% Calm Calm 2.0 mph3.2 kmh 29.73 in1006.8 mb 0.00 in0.0 mm 0.00 in0.0 mm 0.02 in0.5 mm
09:45 PM 42.0°F5.6°C 39.0°F3.9°C 89% Calm Calm -- 29.73 in1006.8 mb 0.00 in0.0 mm 0.00 in0.0 mm 0.02 in0.5 mm
09:50 PM 41.9°F5.5°C 39.2°F4.0°C 90% Calm Calm -- 29.73 in1006.8 mb 0.00 in0.0 mm 0.00 in0.0 mm 0.02 in0.5 mm
09:55 PM 41.9°F5.5°C 39.2°F4.0°C 90% Calm Calm -- 29.73 in1006.8 mb 0.00 in0.0 mm 0.00 in0.0 mm 0.02 in0.5 mm
10:00 PM 41.8°F5.4°C 39.1°F3.9°C 90% Calm Calm -- 29.73 in1006.8 mb 0.00 in0.0 mm 0.00 in0.0 mm 0.02 in0.5 mm
10:05 PM 41.8°F5.4°C 39.1°F3.9°C 90% Calm Calm -- 29.72 in1006.4 mb 0.00 in0.0 mm 0.00 in0.0 mm 0.02 in0.5 mm
10:10 PM 41.6°F5.3°C 38.9°F3.8°C 90% Calm Calm -- 29.73 in1006.8 mb 0.00 in0.0 mm 0.00 in0.0 mm 0.02 in0.5 mm
10:14 PM 41.5°F5.3°C 38.8°F3.8°C 90% Calm Calm -- 29.73 in1006.8 mb 0.00 in0.0 mm 0.00 in0.0 mm 0.02 in0.5 mm
10:20 PM 41.4°F5.2°C 38.7°F3.7°C 90% Calm Calm -- 29.73 in1006.8 mb 0.00 in0.0 mm 0.00 in0.0 mm 0.02 in0.5 mm
10:25 PM 41.4°F5.2°C 38.7°F3.7°C 90% Calm Calm -- 29.72 in1006.4 mb 0.00 in0.0 mm 0.00 in0.0 mm 0.02 in0.5 mm
10:30 PM 41.3°F5.2°C 38.6°F3.7°C 90% Calm Calm -- 29.72 in1006.4 mb 0.00 in0.0 mm 0.00 in0.0 mm 0.02 in0.5 mm
10:34 PM 41.2°F5.1°C 38.5°F3.6°C 90% Calm Calm -- 29.72 in1006.4 mb 0.00 in0.0 mm 0.00 in0.0 mm 0.02 in0.5 mm
10:40 PM 41.1°F5.1°C 38.7°F3.7°C 91% Calm Calm -- 29.72 in1006.4 mb 0.00 in0.0 mm 0.00 in0.0 mm 0.02 in0.5 mm
10:45 PM 41.0°F5.0°C 38.3°F3.5°C 90% Calm Calm -- 29.73 in1006.8 mb 0.00 in0.0 mm 0.00 in0.0 mm 0.02 in0.5 mm
10:50 PM 40.9°F4.9°C 38.5°F3.6°C 91% Calm Calm -- 29.73 in1006.8 mb 0.00 in0.0 mm 0.00 in0.0 mm 0.02 in0.5 mm
10:55 PM 40.8°F4.9°C 38.4°F3.6°C 91% Calm Calm -- 29.73 in1006.8 mb 0.00 in0.0 mm 0.00 in0.0 mm 0.02 in0.5 mm
11:00 PM 40.6°F4.8°C 38.2°F3.4°C 91% Calm Calm 1.0 mph1.6 kmh 29.74 in1007.1 mb 0.00 in0.0 mm 0.00 in0.0 mm 0.02 in0.5 mm
11:05 PM 40.5°F4.7°C 38.1°F3.4°C 91% Calm Calm -- 29.74 in1007.1 mb 0.00 in0.0 mm 0.00 in0.0 mm 0.02 in0.5 mm
11:10 PM 40.4°F4.7°C 38.0°F3.3°C 91% Calm Calm -- 29.74 in1007.1 mb 0.00 in0.0 mm 0.00 in0.0 mm 0.02 in0.5 mm
11:15 PM 40.2°F4.6°C 37.8°F3.2°C 91% Calm Calm -- 29.74 in1007.1 mb 0.00 in0.0 mm 0.00 in0.0 mm 0.02 in0.5 mm
11:20 PM 40.1°F4.5°C 37.7°F3.2°C 91% Calm Calm -- 29.74 in1007.1 mb 0.00 in0.0 mm 0.00 in0.0 mm 0.02 in0.5 mm
11:25 PM 40.0°F4.4°C 37.6°F3.1°C 91% Calm Calm -- 29.74 in1007.1 mb 0.00 in0.0 mm 0.00 in0.0 mm 0.02 in0.5 mm
11:30 PM 39.9°F4.4°C 37.5°F3.1°C 91% Calm Calm -- 29.73 in1006.8 mb 0.00 in0.0 mm 0.00 in0.0 mm 0.02 in0.5 mm
11:35 PM 39.8°F4.3°C 37.4°F3.0°C 91% Calm Calm -- 29.73 in1006.8 mb 0.00 in0.0 mm 0.00 in0.0 mm 0.02 in0.5 mm
11:40 PM 39.7°F4.3°C 37.3°F2.9°C 91% Calm Calm -- 29.74 in1007.1 mb 0.00 in0.0 mm 0.00 in0.0 mm 0.02 in0.5 mm
11:45 PM 39.5°F4.2°C 36.8°F2.7°C 90% Calm Calm -- 29.74 in1007.1 mb 0.00 in0.0 mm 0.00 in0.0 mm 0.02 in0.5 mm
11:50 PM 39.3°F4.1°C 36.6°F2.6°C 90% Calm Calm -- 29.74 in1007.1 mb 0.00 in0.0 mm 0.00 in0.0 mm 0.02 in0.5 mm
11:55 PM 39.2°F4.0°C 36.5°F2.5°C 90% Calm Calm -- 29.74 in1007.1 mb 0.00 in0.0 mm 0.00 in0.0 mm 0.02 in0.5 mm